Alle Lego sets met een set nummer van 41000 tot 42000

Sorteer op
Titel van setPrijsVerschilToegevoegd
Plezier op het water (41000)€ 5,49- € 0,50 (8%)2012-12-17
Oefenzaal (41004)€ 24,95+ € 4,96 (25%)2012-12-17
Stephanie's Soccer Practice (41011)€ 14,95+ € 4,96 (50%)2012-12-17
Dolfijn cruiser (41015)€ 89,95+ € 20,89 (30%)2013-07-30
Cat's Playground (41018)€ 2,95- € 1,04 (26%)2012-12-17
Turtle's Little Oasis (41019)€ 2,95- € 1,04 (26%)2012-12-17
Hedgehog's Hideaway (41020)€ 3,25- € 0,74 (19%)2013-05-01
Poodle's Little Palace (41021)€ 3,25- € 0,74 (19%)2013-05-01
Het hok van Konijn (41022)€ 3,25- € 0,74 (19%)2013-05-01
Sunshine Oogst (41026)€ 17,95- € 2,04 (10%)2013-12-27
Stephanie's lammetje (41029)€ 7,95- € 2,04 (20%)2013-12-27
Eerste Hulp Junglebike (41032)€ 15,99+ € 1,00 (7%)2014-05-31
Stephanie's strandhuis (41037)€ 44,95- € 0,04 (0%)2013-12-27
LEGO® Friends Adventkalender (41040)€ 19,95- € 5,04 (20%)2014-09-02
Het paradijsje van Schildpad (41041)€ 3,25- € 1,24 (28%)2013-12-27
De tempel van Tijger (41042)€ 3,25- € 1,24 (28%)2013-12-27
De fontein van Papegaai (41044)€ 3,25- € 1,24 (28%)2014-05-14
De bananenboom van Orang-oetan (41045)€ 3,25- € 1,24 (28%)2014-05-14
De rivier van Bruine Beer (41046)€ 3,25- € 1,24 (28%)2014-05-14
Zeehondenrots (41047)€ 3,25- € 1,24 (28%)2014-09-02
Leeuwenwelp savanne (41048)€ 3,25- € 1,24 (28%)2014-09-02
Heartlake winkelcentrum (41058)€ 89,95- € 20,04 (18%)2014-05-31
Doornroosjes koninklijke slaapkamer (41060)€ 13,89+ € 0,90 (7%)2014-12-23
Jasmines exotische paleis (41061)€ 16,76- € 10,23 (38%)2014-12-23
Elsa's fonkelende ijskasteel (41062)€ 37,99- € 7,00 (16%)2014-12-23
Rapunzels allermooiste dag (41065)€ 16,96- € 13,03 (43%)2016-05-26
Laagste ooitSlee-avontuur met Anna & Kristoff (41066)€ 16,64- € 18,35 (52%)2015-12-04
Belle's betoverde kasteel (41067)€ 39,99- € 20,00 (33%)2016-05-26
Het kasteelfeest in Arendelle (41068)€ 34,48- € 35,51 (51%)2015-12-04
Een dag bij het zwembad met Treasure (41069)€ 4,00- € 5,99 (60%)2015-12-15
Aira's werkplaats (41071)€ 9,99--2015-03-01
Naida's avonturenschip (41073)€ 26,95- € 6,04 (18%)2015-03-01
De Treetop Hideaway van de Elfen (41075)€ 44,95- € 10,04 (18%)2015-03-01
Aira’s Pegasus slee (41077)€ 34,95- € 10,04 (22%)2015-06-01
Skyra’s Mysterieuze Luchtkasteel (41078)€ 79,95- € 15,04 (16%)2015-06-01
Heartlake Kapsalon (41093)€ 28,99- € 4,00 (12%)2014-12-25
Heartlake vuurtoren (41094)€ 34,99- € 10,00 (22%)2014-12-25
Emma's huis (41095)€ 52,95- € 22,04 (29%)2014-12-25
Heartlake luchtballon (41097)€ 22,89- € 10,10 (31%)2014-12-25
Andrea’s Toeristenkiosk (41098)€ 7,95- € 2,04 (20%)2015-06-01
Heartlake Skate Park (41099)€ 16,99- € 3,00 (15%)2015-06-01
Heartlake Privéjet (41100)€ 22,95- € 4,04 (15%)2015-06-01
Heartlake Grand Hotel (41101)€ 96,59- € 43,40 (31%)2015-06-01
LEGO® Friends Adventkalender (41102)€ 19,95- € 5,04 (20%)2015-09-01
Popster Opnamestudio (41103)€ 12,49- € 2,50 (17%)2015-06-01
Popster Kleedkamer (41104)€ 29,99- € 3,00 (9%)2015-06-01
Popster Podium (41105)€ 41,95- € 8,04 (16%)2015-06-01
Popster Toerbus (41106)€ 39,99- € 25,00 (38%)2015-06-01
Popster Limousine (41107)€ 26,99--2015-06-01
Heartlake Supermarkt (41108)€ 39,95- € 5,04 (11%)2015-06-01
Heartlake Vliegveld (41109)€ 84,95- € 15,04 (15%)2015-06-01
Verjaardagsfeest (41110)€ 15,95- € 4,04 (20%)2015-12-15
Feesttrein (41111)€ 7,95- € 2,04 (20%)2015-12-15
Feesttaartjes (41112)€ 3,95- € 2,04 (34%)2015-12-15
Cadeauwinkel (41113)€ 3,95- € 2,04 (34%)2015-12-15
Schoonheidssalon (41114)€ 3,95- € 2,04 (34%)2015-12-15
Emma's atelier (41115)€ 7,95- € 2,04 (20%)2015-12-19
Olivia's onderzoeksvoertuig (41116)€ 14,95- € 3,04 (17%)2015-12-19
Popster tv-studio (41117)€ 9,99- € 10,00 (50%)2015-12-19
Heartlake supermarkt (41118)€ 27,95- € 7,04 (20%)2015-12-19
Laagste ooitHeartlake cupcake café (41119)€ 21,84- € 23,15 (51%)2015-12-19
Avonturenkamp boogschieten (41120)€ 7,95- € 2,04 (20%)2015-12-15
Avonturenkamp wildwatervaren (41121)€ 25,95- € 9,04 (26%)2015-12-15
Avonturenkamp boomhuis (41122)€ 54,95- € 25,04 (31%)2015-12-15
Veulen wasplaats (41123)€ 7,09- € 2,90 (29%)2016-05-29
Heartlake puppy dagverblijf (41124)€ 20,80- € 14,19 (41%)2016-05-27
Paardendokter trailer (41125)€ 29,11- € 10,88 (27%)2016-05-27
Heartlake paardrijclub (41126)€ 47,99- € 22,00 (31%)2016-05-27
Pretpark spelletjeshal (41127)€ 10,82- € 7,17 (40%)2016-05-27
Pretpark ruimtevlucht (41128)€ 15,07- € 4,92 (25%)2016-05-27
Pretpark hotdog-wagen (41129)€ 20,80- € 9,19 (31%)2016-05-27
Pretpark achtbaan (41130)€ 79,95- € 20,04 (20%)2016-05-27
LEGO® Friends adventkalender (41131)€ 14,99- € 10,00 (40%)2016-08-31
Heartlake feestwinkel (41132)€ 29,99- € 5,00 (14%)2016-05-29
Pretpark botsauto's (41133)€ 29,11- € 15,88 (35%)2016-05-29
Laagste ooitHeartlake Theaterschool (41134)€ 89,99--2016-05-29
Livi's popsterrenhuis (41135)€ 41,99- € 18,00 (30%)2015-12-15
Daisy's schoonheidssalon (41140)€ 6,98- € 5,01 (42%)2015-12-15
Pumpkins koninklijke koets (41141)€ 8,98- € 3,01 (25%)2015-12-15
Palace Pets koninklijk kasteel (41142)€ 15,85- € 4,14 (21%)2015-12-19
Laagste ooitBerry's keuken (41143)€ 5,71- € 2,28 (29%)2016-12-01
Laagste ooitPetite's koninklijke stal (41144)€ 8,95- € 3,04 (25%)2016-12-01
Anna's sneeuwavontuur (41147)€ 16,95- € 3,04 (15%)2016-12-01
Elsa's magische ijspaleis (41148)€ 59,98- € 15,01 (20%)2016-12-01
Laagste ooitVaiana's eilandavontuur (41149)€ 24,98- € 5,01 (17%)2016-12-01
Vaiana's oceaanreis (41150)€ 34,95- € 10,04 (22%)2016-12-01
Emily Jones & de baby winddraak (41171)€ 13,95+ € 3,96 (40%)2016-03-01
Het waterdraak avontuur (41172)€ 16,95- € 3,04 (15%)2016-03-01
Elvendale drakenschool (41173)€ 16,99- € 3,00 (15%)2016-03-01
De lavagrot van de vuurdraak (41175)€ 35,90- € 9,09 (20%)2016-03-01
De geheime markt (41176)€ 52,95- € 17,04 (24%)2016-03-01
De kostbare kristalmijn (41177)€ 19,95- € 10,04 (33%)2016-05-26
Koninginnendraak redding (41179)€ 55,78- € 24,21 (30%)2016-05-26
Ragana's magische schaduwkasteel (41180)€ 76,99- € 23,00 (23%)2016-05-26
Laagste ooitBatgirl™ Batjet-achtervolging (41230)€ 21,50- € 3,49 (14%)2016-12-01
Laagste ooitHarley Quinn™ schiet te hulp (41231)€ 25,95- € 9,04 (26%)2016-12-01
Laagste ooitSuperheldenschool (41232)€ 72,95- € 17,04 (19%)2016-12-01
Laagste ooitLashina™ tank (41233)€ 12,95- € 5,04 (28%)2016-12-01
Laagste ooitBumblebee™ helikopter (41234)€ 12,94- € 5,05 (28%)2016-12-01
Laagste ooitWonder Woman™ nachtverblijf (41235)€ 16,95- € 3,04 (15%)2016-12-01
Laagste ooitPuppy kampioenschap (41300)€ 16,95- € 3,04 (15%)2016-12-01
Puppy optocht (41301)€ 12,95- € 5,04 (28%)2016-12-01
Laagste ooitPuppy verzorgplek (41302)€ 3,95- € 1,04 (21%)2016-12-01
Laagste ooitPuppy speeltuin (41303)€ 3,95- € 1,04 (21%)2016-12-01
Laagste ooitPuppy verrassingen (41304)€ 3,95- € 1,04 (21%)2016-12-01
Laagste ooitEmma's fotostudio (41305)€ 7,95- € 2,04 (20%)2016-12-01
Laagste ooitMia's strandscooter (41306)€ 7,95- € 2,04 (20%)2016-12-01
Laagste ooitOlivia's laboratorium (41307)€ 7,95- € 2,04 (20%)2016-12-01
Laagste ooitStephanies vriendschap-taartjes (41308)€ 7,95- € 2,04 (20%)2016-12-01
Laagste ooitAndrea's muzikale duet (41309)€ 7,95- € 2,04 (20%)2016-12-01
Laagste ooitHeartlake pakjesdienst (41310)€ 15,95- € 4,04 (20%)2016-12-01
Heartlake pizzeria (41311)€ 22,98- € 7,01 (23%)2016-12-01
Laagste ooitHeartlake sporthal (41312)€ 32,88- € 12,11 (27%)2016-12-01
Heartlake zwembad (41313)€ 38,98- € 11,01 (22%)2016-12-01
Stephanies huis (41314)€ 53,98- € 21,01 (28%)2016-12-01
FLAIN (41500)€ 14,76+ € 9,77 (196%)2014-03-01
Gox (41536)€ 6,95+ € 1,96 (39%)2015-06-01
Jinky (41537)€ 6,95+ € 1,96 (39%)2015-06-01
Kamzo (41538)€ 6,95+ € 1,96 (39%)2015-06-01
Spugg (41542)€ 6,95+ € 1,96 (39%)2015-06-01
Turg (41543)€ 6,95+ € 1,96 (39%)2015-06-01
Tungster (41544)€ 6,95+ € 1,96 (39%)2015-06-01
Kuffs (41554)€ 3,95- € 0,04 (1%)2016-01-31
Busto (41555)€ 3,95- € 0,04 (1%)2016-01-31
Tiketz (41556)€ 3,95- € 0,04 (1%)2016-01-31
Camillot (41557)€ 3,95- € 0,04 (1%)2016-01-31
Mixadel (41558)€ 3,95- € 0,04 (1%)2016-01-31
Paladum (41559)€ 3,95- € 0,04 (1%)2016-01-31
Jamzy (41560)€ 3,95- € 0,04 (1%)2016-01-31
Tapsy (41561)€ 3,95- € 0,04 (1%)2016-01-31
Trumpsy (41562)€ 3,95- € 0,04 (1%)2016-01-31
4x4 Crawler Exclusive Edition (41999)€ 749,99+ € 570,00 (317%)2013-08-01

Ook niet meer leverbare sets laten zien